GIA310 WIII-WARR
Flight info
| Callsign | GIA310 |
|---|---|
| Flight time | 1h 0m |
| Altitude | 37000 |
| Route | CA2A CA T3 BA BA1C |
| Aircraft | MD11/H-SDE1E2E3FGHIJ2J3J4J5M1RWXY/LB1D1 |
Departure
| Time | 2026-05-06 10:55 |
|---|---|
| Airport | Soekarno-Hatta International Airport (WIII) |
Arrival
| Time | 2026-05-06 11:56 |
|---|---|
| Airport | Juanda International Airport (WARR) |
| Time | Latitude | Longitude | Altitude | Speed | Heading |
|---|---|---|---|---|---|
| 2026-05-06 10:19 | -6.11602 | 106.66817 | 0 ft | 0 kts | 158° |
| 2026-05-06 10:21 | -6.11601 | 106.66817 | 0 ft | 0 kts | 158° |
| 2026-05-06 10:38 | -6.11600 | 106.66817 | 45 ft | 2 kts | 158° |
| 2026-05-06 10:39 | -6.11577 | 106.66808 | 43 ft | 4 kts | 158° |
| 2026-05-06 10:39 | -6.11551 | 106.66798 | 45 ft | 4 kts | 159° |
| 2026-05-06 10:39 | -6.11530 | 106.66790 | 45 ft | 4 kts | 176° |
| 2026-05-06 10:39 | -6.11512 | 106.66791 | 45 ft | 4 kts | 225° |
| 2026-05-06 10:40 | -6.11499 | 106.66811 | 41 ft | 4 kts | 251° |
| 2026-05-06 10:40 | -6.11495 | 106.66824 | 43 ft | 0 kts | 251° |
| 2026-05-06 10:44 | -6.11496 | 106.66822 | 42 ft | 2 kts | 251° |
| 2026-05-06 10:44 | -6.11504 | 106.66798 | 41 ft | 6 kts | 250° |
| 2026-05-06 10:45 | -6.11525 | 106.66741 | 45 ft | 12 kts | 249° |
| 2026-05-06 10:45 | -6.11556 | 106.66666 | 43 ft | 11 kts | 247° |
| 2026-05-06 10:45 | -6.11588 | 106.66592 | 44 ft | 14 kts | 247° |
| 2026-05-06 10:45 | -6.11625 | 106.66495 | 45 ft | 15 kts | 249° |
| 2026-05-06 10:46 | -6.11623 | 106.66413 | 44 ft | 10 kts | 301° |
| 2026-05-06 10:46 | -6.11567 | 106.66372 | 45 ft | 11 kts | 340° |
| 2026-05-06 10:46 | -6.11484 | 106.66342 | 45 ft | 16 kts | 339° |
| 2026-05-06 10:46 | -6.11375 | 106.66297 | 43 ft | 15 kts | 333° |
| 2026-05-06 10:47 | -6.11350 | 106.66242 | 45 ft | 7 kts | 256° |
| 2026-05-06 10:47 | -6.11378 | 106.66165 | 45 ft | 17 kts | 248° |
| 2026-05-06 10:47 | -6.11434 | 106.66023 | 45 ft | 27 kts | 249° |
| 2026-05-06 10:47 | -6.11510 | 106.65832 | 45 ft | 30 kts | 248° |
| 2026-05-06 10:48 | -6.11584 | 106.65647 | 42 ft | 28 kts | 248° |
| 2026-05-06 10:48 | -6.11653 | 106.65474 | 45 ft | 26 kts | 248° |
| 2026-05-06 10:48 | -6.11717 | 106.65311 | 43 ft | 24 kts | 248° |
| 2026-05-06 10:48 | -6.11777 | 106.65160 | 44 ft | 23 kts | 248° |
| 2026-05-06 10:49 | -6.11837 | 106.65010 | 45 ft | 27 kts | 248° |
| 2026-05-06 10:49 | -6.11920 | 106.64805 | 43 ft | 34 kts | 248° |
| 2026-05-06 10:49 | -6.12004 | 106.64589 | 43 ft | 32 kts | 249° |
| 2026-05-06 10:49 | -6.12085 | 106.64387 | 46 ft | 30 kts | 247° |
| 2026-05-06 10:50 | -6.12161 | 106.64198 | 43 ft | 28 kts | 249° |
| 2026-05-06 10:50 | -6.12232 | 106.64021 | 44 ft | 26 kts | 248° |
| 2026-05-06 10:50 | -6.12228 | 106.63885 | 47 ft | 13 kts | 314° |
| 2026-05-06 10:50 | -6.12181 | 106.63873 | 47 ft | 6 kts | 7° |
| 2026-05-06 10:51 | -6.12132 | 106.63895 | 46 ft | 8 kts | 26° |
| 2026-05-06 10:51 | -6.12098 | 106.63895 | 46 ft | 3 kts | 4° |
| 2026-05-06 10:51 | -6.12082 | 106.63910 | 44 ft | 4 kts | 51° |
| 2026-05-06 10:51 | -6.12074 | 106.63929 | 45 ft | 0 kts | 69° |
| 2026-05-06 10:55 | -6.12008 | 106.64095 | 46 ft | 71 kts | 68° |
| 2026-05-06 10:55 | -6.11694 | 106.64877 | 47 ft | 165 kts | 69° |
| 2026-05-06 10:55 | -6.11285 | 106.66010 | 889 ft | 169 kts | 69° |
| 2026-05-06 10:56 | -6.10856 | 106.67147 | 2064 ft | 173 kts | 69° |
| 2026-05-06 10:56 | -6.10334 | 106.68246 | 3266 ft | 178 kts | 56° |
| 2026-05-06 10:56 | -6.09367 | 106.69234 | 3779 ft | 219 kts | 45° |
| 2026-05-06 10:56 | -6.08188 | 106.70374 | 4211 ft | 254 kts | 46° |
| 2026-05-06 10:57 | -6.06909 | 106.71668 | 4634 ft | 266 kts | 47° |
| 2026-05-06 10:57 | -6.05611 | 106.73005 | 4936 ft | 269 kts | 47° |
| 2026-05-06 10:57 | -6.04305 | 106.74363 | 4974 ft | 270 kts | 47° |
| 2026-05-06 10:57 | -6.02994 | 106.75705 | 4940 ft | 270 kts | 47° |
| 2026-05-06 10:58 | -6.01689 | 106.77076 | 4634 ft | 269 kts | 49° |
| 2026-05-06 10:58 | -6.00419 | 106.78448 | 5382 ft | 260 kts | 49° |
| 2026-05-06 10:58 | -5.99211 | 106.79848 | 6650 ft | 268 kts | 56° |
| 2026-05-06 10:58 | -5.98350 | 106.81506 | 7805 ft | 271 kts | 74° |
| 2026-05-06 10:59 | -5.98142 | 106.83389 | 8982 ft | 275 kts | 96° |
| 2026-05-06 10:59 | -5.98559 | 106.85280 | 10043 ft | 281 kts | 106° |
| 2026-05-06 10:59 | -5.99203 | 106.87238 | 10445 ft | 314 kts | 108° |
| 2026-05-06 10:59 | -5.99977 | 106.89439 | 10640 ft | 352 kts | 109° |
| 2026-05-06 11:00 | -6.00809 | 106.91790 | 11573 ft | 360 kts | 108° |
| 2026-05-06 11:00 | -6.01640 | 106.94168 | 12044 ft | 366 kts | 108° |
| 2026-05-06 11:00 | -6.02477 | 106.96591 | 12408 ft | 369 kts | 108° |
| 2026-05-06 11:00 | -6.03315 | 106.99039 | 12778 ft | 371 kts | 108° |
| 2026-05-06 11:01 | -6.04154 | 107.01505 | 12979 ft | 374 kts | 108° |
| 2026-05-06 11:01 | -6.04994 | 107.03984 | 13023 ft | 375 kts | 108° |
| 2026-05-06 11:01 | -6.05834 | 107.06465 | 13027 ft | 375 kts | 108° |
| 2026-05-06 11:01 | -6.06673 | 107.08945 | 13027 ft | 375 kts | 108° |
| 2026-05-06 11:02 | -6.07512 | 107.11428 | 13025 ft | 375 kts | 108° |
| 2026-05-06 11:02 | -6.08362 | 107.13905 | 13028 ft | 375 kts | 109° |
| 2026-05-06 11:02 | -6.09322 | 107.16355 | 13131 ft | 378 kts | 111° |
| 2026-05-06 11:02 | -6.10353 | 107.18767 | 14231 ft | 378 kts | 112° |
| 2026-05-06 11:03 | -6.11414 | 107.21208 | 15103 ft | 384 kts | 112° |
| 2026-05-06 11:03 | -6.12496 | 107.23686 | 15946 ft | 390 kts | 112° |
| 2026-05-06 11:03 | -6.13577 | 107.26165 | 16765 ft | 395 kts | 112° |
| 2026-05-06 11:03 | -6.14686 | 107.28713 | 17586 ft | 400 kts | 112° |
| 2026-05-06 11:04 | -6.15808 | 107.31294 | 18334 ft | 406 kts | 112° |
| 2026-05-06 11:04 | -6.16942 | 107.33910 | 19017 ft | 411 kts | 112° |
| 2026-05-06 11:04 | -6.18090 | 107.36557 | 19679 ft | 415 kts | 112° |
| 2026-05-06 11:04 | -6.19252 | 107.39239 | 20344 ft | 419 kts | 112° |
| 2026-05-06 11:05 | -6.20425 | 107.41946 | 21006 ft | 424 kts | 112° |
| 2026-05-06 11:05 | -6.21607 | 107.44676 | 21686 ft | 428 kts | 112° |
| 2026-05-06 11:05 | -6.22802 | 107.47436 | 22376 ft | 433 kts | 112° |
| 2026-05-06 11:05 | -6.24009 | 107.50224 | 23067 ft | 438 kts | 112° |
| 2026-05-06 11:06 | -6.25229 | 107.53042 | 23702 ft | 443 kts | 112° |
| 2026-05-06 11:06 | -6.26449 | 107.55861 | 24345 ft | 447 kts | 112° |
| 2026-05-06 11:06 | -6.27692 | 107.58734 | 24986 ft | 451 kts | 112° |
| 2026-05-06 11:06 | -6.28948 | 107.61637 | 25634 ft | 455 kts | 112° |
| 2026-05-06 11:07 | -6.30217 | 107.64572 | 26283 ft | 459 kts | 112° |
| 2026-05-06 11:07 | -6.31497 | 107.67532 | 26924 ft | 464 kts | 112° |
| 2026-05-06 11:07 | -6.32789 | 107.70522 | 27548 ft | 468 kts | 112° |
| 2026-05-06 11:07 | -6.34095 | 107.73542 | 28180 ft | 473 kts | 112° |
| 2026-05-06 11:08 | -6.35414 | 107.76594 | 28781 ft | 477 kts | 112° |
| 2026-05-06 11:08 | -6.36741 | 107.79665 | 29396 ft | 481 kts | 112° |
| 2026-05-06 11:08 | -6.38082 | 107.82768 | 29961 ft | 486 kts | 112° |
| 2026-05-06 11:08 | -6.39434 | 107.85898 | 30408 ft | 490 kts | 112° |
| 2026-05-06 11:09 | -6.40797 | 107.89054 | 30863 ft | 493 kts | 112° |
| 2026-05-06 11:09 | -6.42163 | 107.92218 | 31424 ft | 493 kts | 112° |
| 2026-05-06 11:09 | -6.43523 | 107.95373 | 32005 ft | 492 kts | 112° |
| 2026-05-06 11:09 | -6.44864 | 107.98484 | 32557 ft | 491 kts | 112° |
| 2026-05-06 11:10 | -6.46240 | 108.01676 | 33086 ft | 491 kts | 113° |
| 2026-05-06 11:10 | -6.47579 | 108.04785 | 33578 ft | 491 kts | 113° |
| 2026-05-06 11:10 | -6.48941 | 108.07943 | 34046 ft | 491 kts | 113° |
| 2026-05-06 11:10 | -6.50298 | 108.11093 | 34476 ft | 491 kts | 113° |
| 2026-05-06 11:11 | -6.51657 | 108.14245 | 34903 ft | 490 kts | 113° |
| 2026-05-06 11:11 | -6.53013 | 108.17392 | 35327 ft | 490 kts | 112° |
| 2026-05-06 11:11 | -6.54368 | 108.20538 | 35692 ft | 489 kts | 112° |
| 2026-05-06 11:11 | -6.55718 | 108.23673 | 36047 ft | 489 kts | 112° |
| 2026-05-06 11:12 | -6.57070 | 108.26812 | 36408 ft | 488 kts | 112° |
| 2026-05-06 11:12 | -6.58418 | 108.29943 | 36728 ft | 489 kts | 112° |
| 2026-05-06 11:12 | -6.59768 | 108.33080 | 36809 ft | 488 kts | 112° |
| 2026-05-06 11:13 | -6.62464 | 108.39345 | 36834 ft | 487 kts | 112° |
| 2026-05-06 11:13 | -6.65141 | 108.45572 | 36842 ft | 487 kts | 112° |
| 2026-05-06 11:14 | -6.67834 | 108.51836 | 36842 ft | 487 kts | 112° |
| 2026-05-06 11:14 | -6.70301 | 108.58177 | 36841 ft | 486 kts | 104° |
| 2026-05-06 11:15 | -6.71547 | 108.64857 | 36837 ft | 486 kts | 97° |
| 2026-05-06 11:15 | -6.72425 | 108.71597 | 36833 ft | 486 kts | 97° |
| 2026-05-06 11:16 | -6.73303 | 108.77931 | 36843 ft | 487 kts | 97° |
| 2026-05-06 11:16 | -6.74299 | 108.84624 | 36834 ft | 486 kts | 98° |
| 2026-05-06 11:17 | -6.75323 | 108.91364 | 36832 ft | 487 kts | 98° |
| 2026-05-06 11:17 | -6.76348 | 108.98111 | 36834 ft | 487 kts | 98° |
| 2026-05-06 11:18 | -6.77367 | 109.04851 | 36830 ft | 487 kts | 98° |
| 2026-05-06 11:18 | -6.78385 | 109.11599 | 36828 ft | 488 kts | 98° |
| 2026-05-06 11:19 | -6.79403 | 109.18350 | 36835 ft | 488 kts | 98° |
| 2026-05-06 11:19 | -6.80414 | 109.25058 | 36834 ft | 488 kts | 98° |
| 2026-05-06 11:20 | -6.81430 | 109.31809 | 36822 ft | 488 kts | 98° |
| 2026-05-06 11:20 | -6.82448 | 109.38581 | 36819 ft | 488 kts | 98° |
| 2026-05-06 11:21 | -6.83462 | 109.45355 | 36821 ft | 488 kts | 98° |
| 2026-05-06 11:21 | -6.84472 | 109.52112 | 36825 ft | 489 kts | 98° |
| 2026-05-06 11:22 | -6.85485 | 109.58876 | 36817 ft | 489 kts | 98° |
| 2026-05-06 11:22 | -6.86493 | 109.65603 | 36816 ft | 489 kts | 98° |
| 2026-05-06 11:23 | -6.87473 | 109.72152 | 36821 ft | 489 kts | 98° |
| 2026-05-06 11:23 | -6.88487 | 109.78932 | 36826 ft | 489 kts | 98° |
| 2026-05-06 11:24 | -6.89490 | 109.85653 | 36823 ft | 489 kts | 98° |
| 2026-05-06 11:24 | -6.90506 | 109.92462 | 36827 ft | 489 kts | 98° |
| 2026-05-06 11:25 | -6.91508 | 109.99185 | 36823 ft | 489 kts | 98° |
| 2026-05-06 11:25 | -6.92514 | 110.05942 | 36816 ft | 488 kts | 98° |
| 2026-05-06 11:26 | -6.93518 | 110.12692 | 36806 ft | 488 kts | 98° |
| 2026-05-06 11:26 | -6.94524 | 110.19461 | 36804 ft | 488 kts | 98° |
| 2026-05-06 11:27 | -6.95524 | 110.26212 | 36800 ft | 488 kts | 98° |
| 2026-05-06 11:27 | -6.96523 | 110.32976 | 36803 ft | 488 kts | 98° |
| 2026-05-06 11:28 | -6.97449 | 110.39741 | 36806 ft | 487 kts | 94° |
| 2026-05-06 11:28 | -6.97739 | 110.46537 | 36795 ft | 487 kts | 90° |
| 2026-05-06 11:29 | -6.97792 | 110.53321 | 36796 ft | 487 kts | 90° |
| 2026-05-06 11:29 | -6.97866 | 110.60131 | 36792 ft | 486 kts | 90° |
| 2026-05-06 11:30 | -6.97977 | 110.66940 | 36797 ft | 486 kts | 90° |
| 2026-05-06 11:30 | -6.98098 | 110.73745 | 36799 ft | 486 kts | 90° |
| 2026-05-06 11:31 | -6.98218 | 110.80547 | 36791 ft | 486 kts | 90° |
| 2026-05-06 11:31 | -6.98277 | 110.83944 | 36580 ft | 486 kts | 90° |
| 2026-05-06 11:31 | -6.98336 | 110.87356 | 36242 ft | 487 kts | 90° |
| 2026-05-06 11:31 | -6.98394 | 110.90766 | 35712 ft | 488 kts | 90° |
| 2026-05-06 11:32 | -6.98453 | 110.94173 | 35146 ft | 488 kts | 90° |
| 2026-05-06 11:32 | -6.98511 | 110.97610 | 34585 ft | 489 kts | 90° |
| 2026-05-06 11:32 | -6.98569 | 111.01029 | 34024 ft | 491 kts | 90° |
| 2026-05-06 11:32 | -6.98627 | 111.04478 | 33413 ft | 492 kts | 90° |
| 2026-05-06 11:33 | -6.98684 | 111.07926 | 32821 ft | 494 kts | 90° |
| 2026-05-06 11:33 | -6.98741 | 111.11391 | 32244 ft | 495 kts | 90° |
| 2026-05-06 11:33 | -6.98797 | 111.14819 | 31679 ft | 497 kts | 90° |
| 2026-05-06 11:33 | -6.98855 | 111.18312 | 31080 ft | 499 kts | 91° |
| 2026-05-06 11:34 | -6.98912 | 111.21813 | 30476 ft | 501 kts | 91° |
| 2026-05-06 11:34 | -6.98968 | 111.25327 | 29834 ft | 501 kts | 91° |
| 2026-05-06 11:34 | -6.99022 | 111.28817 | 29106 ft | 497 kts | 91° |
| 2026-05-06 11:34 | -6.99059 | 111.31159 | 28668 ft | 493 kts | 91° |
| 2026-05-06 11:35 | -6.99112 | 111.34499 | 28044 ft | 467 kts | 91° |
| 2026-05-06 11:35 | -6.99162 | 111.37654 | 27472 ft | 434 kts | 91° |
| 2026-05-06 11:35 | -6.99256 | 111.40602 | 26921 ft | 412 kts | 95° |
| 2026-05-06 11:35 | -6.99703 | 111.43437 | 26383 ft | 409 kts | 103° |
| 2026-05-06 11:36 | -7.00384 | 111.46154 | 25831 ft | 391 kts | 105° |
| 2026-05-06 11:36 | -7.01134 | 111.48757 | 25285 ft | 388 kts | 107° |
| 2026-05-06 11:36 | -7.01901 | 111.51344 | 24759 ft | 382 kts | 107° |
| 2026-05-06 11:36 | -7.02641 | 111.53861 | 24246 ft | 377 kts | 106° |
| 2026-05-06 11:37 | -7.03370 | 111.56379 | 23731 ft | 372 kts | 106° |
| 2026-05-06 11:37 | -7.04079 | 111.58868 | 23180 ft | 368 kts | 106° |
| 2026-05-06 11:37 | -7.04775 | 111.61330 | 22617 ft | 364 kts | 106° |
| 2026-05-06 11:37 | -7.05461 | 111.63774 | 22086 ft | 361 kts | 106° |
| 2026-05-06 11:38 | -7.06138 | 111.66190 | 21581 ft | 358 kts | 106° |
| 2026-05-06 11:38 | -7.06811 | 111.68596 | 21072 ft | 355 kts | 106° |
| 2026-05-06 11:38 | -7.07476 | 111.70975 | 20591 ft | 353 kts | 106° |
| 2026-05-06 11:38 | -7.08139 | 111.73348 | 20097 ft | 350 kts | 106° |
| 2026-05-06 11:39 | -7.08796 | 111.75699 | 19624 ft | 347 kts | 106° |
| 2026-05-06 11:39 | -7.09447 | 111.78032 | 19245 ft | 344 kts | 106° |
| 2026-05-06 11:39 | -7.10091 | 111.80341 | 19003 ft | 342 kts | 106° |
| 2026-05-06 11:39 | -7.10732 | 111.82635 | 18872 ft | 336 kts | 106° |
| 2026-05-06 11:40 | -7.11356 | 111.84872 | 18766 ft | 330 kts | 106° |
| 2026-05-06 11:40 | -7.11975 | 111.87092 | 18670 ft | 328 kts | 106° |
| 2026-05-06 11:40 | -7.12592 | 111.89300 | 18559 ft | 328 kts | 106° |
| 2026-05-06 11:40 | -7.13207 | 111.91506 | 18447 ft | 327 kts | 106° |
| 2026-05-06 11:41 | -7.13821 | 111.93709 | 18328 ft | 323 kts | 107° |
| 2026-05-06 11:41 | -7.14413 | 111.95833 | 18149 ft | 318 kts | 106° |
| 2026-05-06 11:41 | -7.15032 | 111.97969 | 17742 ft | 317 kts | 109° |
| 2026-05-06 11:41 | -7.15796 | 112.00047 | 17151 ft | 318 kts | 113° |
| 2026-05-06 11:42 | -7.16653 | 112.02129 | 16536 ft | 322 kts | 114° |
| 2026-05-06 11:42 | -7.17538 | 112.04218 | 15926 ft | 325 kts | 114° |
| 2026-05-06 11:42 | -7.18430 | 112.06313 | 15324 ft | 327 kts | 114° |
| 2026-05-06 11:42 | -7.19327 | 112.08422 | 14713 ft | 325 kts | 114° |
| 2026-05-06 11:43 | -7.20193 | 112.10469 | 14162 ft | 310 kts | 114° |
| 2026-05-06 11:43 | -7.21013 | 112.12410 | 13813 ft | 296 kts | 114° |
| 2026-05-06 11:43 | -7.21821 | 112.14321 | 13295 ft | 299 kts | 114° |
| 2026-05-06 11:44 | -7.23486 | 112.18256 | 11896 ft | 301 kts | 114° |
| 2026-05-06 11:44 | -7.24288 | 112.20155 | 11312 ft | 288 kts | 113° |
| 2026-05-06 11:44 | -7.25056 | 112.21976 | 10897 ft | 281 kts | 113° |
| 2026-05-06 11:44 | -7.25815 | 112.23775 | 10433 ft | 274 kts | 113° |
| 2026-05-06 11:45 | -7.26563 | 112.25548 | 9935 ft | 277 kts | 112° |
| 2026-05-06 11:45 | -7.27298 | 112.27290 | 9449 ft | 271 kts | 112° |
| 2026-05-06 11:45 | -7.28023 | 112.29006 | 8968 ft | 259 kts | 112° |
| 2026-05-06 11:45 | -7.28712 | 112.30642 | 8506 ft | 249 kts | 112° |
| 2026-05-06 11:46 | -7.29382 | 112.32240 | 8082 ft | 244 kts | 111° |
| 2026-05-06 11:46 | -7.29865 | 112.33840 | 7669 ft | 234 kts | 103° |
| 2026-05-06 11:46 | -7.30208 | 112.35412 | 7318 ft | 224 kts | 102° |
| 2026-05-06 11:46 | -7.30519 | 112.36922 | 6978 ft | 216 kts | 102° |
| 2026-05-06 11:47 | -7.30815 | 112.38379 | 6659 ft | 210 kts | 102° |
| 2026-05-06 11:47 | -7.31105 | 112.39813 | 6335 ft | 208 kts | 102° |
| 2026-05-06 11:47 | -7.31393 | 112.41237 | 6006 ft | 207 kts | 102° |
| 2026-05-06 11:47 | -7.31678 | 112.42655 | 5681 ft | 206 kts | 102° |
| 2026-05-06 11:48 | -7.31962 | 112.44062 | 5369 ft | 202 kts | 102° |
| 2026-05-06 11:48 | -7.32233 | 112.45414 | 5078 ft | 191 kts | 101° |
| 2026-05-06 11:48 | -7.32486 | 112.46670 | 4804 ft | 181 kts | 101° |
| 2026-05-06 11:48 | -7.32733 | 112.47903 | 4551 ft | 178 kts | 101° |
| 2026-05-06 11:49 | -7.32981 | 112.49136 | 4292 ft | 177 kts | 101° |
| 2026-05-06 11:49 | -7.33230 | 112.50244 | 4056 ft | 176 kts | 103° |
| 2026-05-06 11:49 | -7.33499 | 112.51442 | 3801 ft | 175 kts | 102° |
| 2026-05-06 11:49 | -7.33748 | 112.52636 | 3610 ft | 173 kts | 100° |
| 2026-05-06 11:50 | -7.33950 | 112.53829 | 3530 ft | 172 kts | 98° |
| 2026-05-06 11:50 | -7.34143 | 112.55025 | 3507 ft | 174 kts | 99° |
| 2026-05-06 11:50 | -7.34337 | 112.56220 | 3443 ft | 173 kts | 99° |
| 2026-05-06 11:50 | -7.34532 | 112.57422 | 3392 ft | 173 kts | 99° |
| 2026-05-06 11:51 | -7.34726 | 112.58615 | 3334 ft | 173 kts | 99° |
| 2026-05-06 11:51 | -7.34921 | 112.59817 | 3210 ft | 174 kts | 99° |
| 2026-05-06 11:51 | -7.35115 | 112.61012 | 3039 ft | 171 kts | 99° |
| 2026-05-06 11:51 | -7.35308 | 112.62200 | 2847 ft | 171 kts | 98° |
| 2026-05-06 11:52 | -7.35497 | 112.63361 | 2621 ft | 162 kts | 98° |
| 2026-05-06 11:52 | -7.35674 | 112.64453 | 2418 ft | 154 kts | 99° |
| 2026-05-06 11:52 | -7.35845 | 112.65506 | 2250 ft | 151 kts | 99° |
| 2026-05-06 11:52 | -7.36013 | 112.66546 | 2060 ft | 150 kts | 98° |
| 2026-05-06 11:53 | -7.36178 | 112.67564 | 1886 ft | 149 kts | 99° |
| 2026-05-06 11:53 | -7.36343 | 112.68584 | 1701 ft | 145 kts | 98° |
| 2026-05-06 11:53 | -7.36504 | 112.69573 | 1500 ft | 141 kts | 98° |
| 2026-05-06 11:53 | -7.36662 | 112.70549 | 1333 ft | 141 kts | 98° |
| 2026-05-06 11:54 | -7.36820 | 112.71524 | 1161 ft | 141 kts | 99° |
| 2026-05-06 11:54 | -7.36978 | 112.72506 | 975 ft | 142 kts | 99° |
| 2026-05-06 11:54 | -7.37139 | 112.73495 | 794 ft | 143 kts | 99° |
| 2026-05-06 11:54 | -7.37301 | 112.74482 | 642 ft | 142 kts | 98° |
| 2026-05-06 11:55 | -7.37460 | 112.75468 | 419 ft | 142 kts | 98° |
| 2026-05-06 11:55 | -7.37613 | 112.76454 | 227 ft | 142 kts | 100° |
| 2026-05-06 11:55 | -7.37774 | 112.77429 | 48 ft | 140 kts | 100° |
| 2026-05-06 11:55 | -7.37922 | 112.78315 | 18 ft | 108 kts | 99° |
| 2026-05-06 11:56 | -7.38011 | 112.78861 | 17 ft | 50 kts | 99° |
| 2026-05-06 11:56 | -7.38052 | 112.79123 | 20 ft | 34 kts | 95° |
| 2026-05-06 11:56 | -7.38022 | 112.79290 | 17 ft | 19 kts | 70° |
| 2026-05-06 11:56 | -7.37993 | 112.79366 | 16 ft | 6 kts | 66° |
| 2026-05-06 11:57 | -7.37974 | 112.79390 | 16 ft | 3 kts | 40° |
| 2026-05-06 11:57 | -7.37958 | 112.79400 | 16 ft | 2 kts | 28° |
| 2026-05-06 11:57 | -7.37919 | 112.79415 | 16 ft | 9 kts | 16° |
| 2026-05-06 11:57 | -7.37866 | 112.79422 | 16 ft | 7 kts | 7° |
| 2026-05-06 11:58 | -7.37814 | 112.79430 | 16 ft | 10 kts | 8° |
| 2026-05-06 11:58 | -7.37745 | 112.79441 | 16 ft | 10 kts | 9° |
| 2026-05-06 11:58 | -7.37689 | 112.79440 | 16 ft | 4 kts | 334° |
| 2026-05-06 11:58 | -7.37672 | 112.79412 | 16 ft | 3 kts | 302° |
| 2026-05-06 11:59 | -7.37648 | 112.79400 | 16 ft | 3 kts | 351° |
| 2026-05-06 11:59 | -7.37618 | 112.79403 | 16 ft | 4 kts | 8° |
| 2026-05-06 11:59 | -7.37597 | 112.79406 | 18 ft | 3 kts | 8° |
| 2026-05-06 11:59 | -7.37588 | 112.79407 | 16 ft | 0 kts | 9° |
| 2026-05-06 12:00 | -7.37589 | 112.79407 | 16 ft | 0 kts | 9° |